Item Display Status Humidity-temperature Sensor

Elevation Above Sea Level: 3 m

 

Deployed Sensor

  • Serial Number: 20256967
  • NDBC Property Number: 42274
  • Start Date: 12/6/2018 (14:21:34 Z)
  • End Date: 7/17/2020 (15:00:00 Z)
Relative Humidity [%]     6 entries per hour
Showing data from 5/8/2020 (02:00:00 Z) to 5/7/2020 (00:00:01 Z)
Previous Next [ Day | 3-Days | 7-Days ]
First Last
Prev [ Day | 3-Days | 7-Days ] Next
First Last

Start Time:     :
End Time:     :     
Time (in GMT) :00 :50 :40 :30 :20 :10
Previous Next [ Day | 3-Days | 7-Days ]
First Last
Prev [ Day | 3-Days | 7-Days ] Next
First Last


123 => good data
MM => data is determined as missing
-- => data not received/configured
Back to Top Back to Top
5/8/2020 02:00 to 1:10 88.98 87.81 88.32 88.40 88.84 88.86
5/8/2020 01:00 to 0:10 87.37 86.64 86.50 85.87 85.02 85.59
5/8/2020 00:00 to 23:10 86.78 86.50 86.17 86.76 86.82 86.46
5/7/2020 23:00 to 22:10 86.58 87.37 86.74 87.02 87.45 87.71
5/7/2020 22:00 to 21:10 87.33 87.51 87.49 87.77 87.61 87.41
5/7/2020 21:00 to 20:10 88.09 88.72 88.82 89.95 89.49 89.63
5/7/2020 20:00 to 19:10 89.77 89.65 88.84 89.75 89.67 89.05
5/7/2020 19:00 to 18:10 88.92 88.44 88.84 89.07 88.48 88.32
5/7/2020 18:00 to 17:10 88.52 88.26 88.66 88.11 88.66 88.58
5/7/2020 17:00 to 16:10 88.64 89.31 88.94 87.99 88.14 87.45
5/7/2020 16:00 to 15:10 87.55 88.30 88.24 87.55 87.87 87.53
5/7/2020 15:00 to 14:10 86.72 87.02 87.10 87.97 87.21 86.64
5/7/2020 14:00 to 13:10 87.21 86.70 86.11 85.67 85.75 85.45
5/7/2020 13:00 to 12:10 86.07 85.41 85.37 85.37 84.70 84.13
5/7/2020 12:00 to 11:10 83.06 82.82 82.74 82.41 82.49 82.33
5/7/2020 11:00 to 10:10 81.95 81.91 83.71 85.69 87.85 87.89
5/7/2020 10:00 to 9:10 88.48 88.07 88.09 88.48 88.32 87.93
5/7/2020 09:00 to 8:10 87.61 87.91 88.20 87.97 87.85 87.41
5/7/2020 08:00 to 7:10 87.57 87.57 87.81 87.73 87.87 88.34
5/7/2020 07:00 to 6:10 88.90 87.65 86.86 86.17 86.58 87.41
5/7/2020 06:00 to 5:10 88.62 87.65 87.85 87.39 86.96 86.84
5/7/2020 05:00 to 4:10 86.76 85.87 86.13 86.80 87.49 88.18
5/7/2020 04:00 to 3:10 87.43 87.39 87.25 86.76 86.42 85.51
5/7/2020 03:00 to 2:10 85.51 85.02 85.26 85.18 86.66 86.21
5/7/2020 02:00 to 1:10 86.13 86.01 87.10 86.96 87.61 86.19
5/7/2020 01:00 to 0:10 85.51 85.37 85.97 86.17 85.04 85.63

 

 

 

Air Temperature [°C]     6 entries per hour
Showing data from 5/8/2020 (02:00:00 Z) to 5/7/2020 (00:00:01 Z)
Previous Next [ Day | 3-Days | 7-Days ]
First Last
Prev [ Day | 3-Days | 7-Days ] Next
First Last

Start Time:     :
End Time:     :     
Time (in GMT) :00 :50 :40 :30 :20 :10
Previous Next [ Day | 3-Days | 7-Days ]
First Last
Prev [ Day | 3-Days | 7-Days ] Next
First Last


123 => good data
MM => data is determined as missing
-- => data not received/configured
Back to Top Back to Top
5/8/2020 02:00 to 1:10 26.42 26.36 26.37 26.33 26.39 26.40
5/8/2020 01:00 to 0:10 26.44 26.35 26.42 26.42 26.40 26.41
5/8/2020 00:00 to 23:10 26.38 26.42 26.33 26.35 26.47 26.44
5/7/2020 23:00 to 22:10 26.27 26.37 26.33 26.28 26.30 26.19
5/7/2020 22:00 to 21:10 26.18 26.18 26.31 26.36 26.24 26.28
5/7/2020 21:00 to 20:10 26.25 26.32 26.02 26.30 26.29 26.33
5/7/2020 20:00 to 19:10 26.23 26.39 26.44 26.26 26.23 26.26
5/7/2020 19:00 to 18:10 26.43 26.30 26.34 26.29 26.31 26.38
5/7/2020 18:00 to 17:10 26.34 26.40 26.29 26.49 26.27 26.35
5/7/2020 17:00 to 16:10 26.30 26.32 26.35 26.32 26.50 26.34
5/7/2020 16:00 to 15:10 26.32 26.27 26.50 26.36 26.37 26.48
5/7/2020 15:00 to 14:10 26.48 26.28 26.12 26.30 26.19 26.15
5/7/2020 14:00 to 13:10 26.24 26.14 26.28 26.15 26.20 26.28
5/7/2020 13:00 to 12:10 26.32 26.20 26.15 26.23 26.20 26.33
5/7/2020 12:00 to 11:10 26.23 26.32 26.24 26.35 26.32 26.17
5/7/2020 11:00 to 10:10 26.28 26.23 26.02 25.98 25.99 25.91
5/7/2020 10:00 to 9:10 26.10 26.07 26.00 26.07 26.10 26.22
5/7/2020 09:00 to 8:10 26.12 25.99 26.10 26.13 26.18 26.10
5/7/2020 08:00 to 7:10 26.16 26.20 26.19 26.24 26.19 26.31
5/7/2020 07:00 to 6:10 26.25 26.31 26.35 26.35 26.25 26.27
5/7/2020 06:00 to 5:10 26.41 26.30 26.34 26.25 26.27 26.21
5/7/2020 05:00 to 4:10 26.18 26.25 26.31 26.22 26.20 26.30
5/7/2020 04:00 to 3:10 26.25 26.28 26.31 26.34 26.47 26.36
5/7/2020 03:00 to 2:10 26.33 26.34 26.40 26.29 26.42 26.44
5/7/2020 02:00 to 1:10 26.32 26.40 26.29 26.34 26.39 26.33
5/7/2020 01:00 to 0:10 26.30 26.31 26.48 26.60 26.32 26.54